EPWR

Copernicus Wrocław Airport

Wrocław, Poland

EPWR 112230Z 18013KT CAVOK 12/06 Q0988

Observed Flight Rules
Dec-11 @ 22:30 UTC (19 minutes ago) Visual Flight Rules
Wind Visibility Clouds
180° at 13 knots 10,000+ meters
  • Clear skies
Temperatures Readings
Current 12°C / 54°F
Dewpoint 6°C / 43°F
Humidity 67%
Altimeter 29.17" Hg
Pressure 988 hPa
Elevation 121
Observed Flight Rules
Dec-11 @ 22:30 UTC
(19 minutes ago)
VFR
Wind Visibility
180° at 13 knots 10,000+ meters
Clouds
  • Clear skies
Temperature Dewpoint
12°C / 54°F 6°C / 43°F
Humidity Altimeter Pressure
67% 29.17" Hg 988 hPa